| time (UTC) | temp F | wind direction | speed MPH | gust MPH | rain 1hr in | rain 24hr in | rain mn in | humidity % | barometer mb |
| 20260509132425 | 61 | 346 | 4.0 | 8.0 | 0.00 | 0.00 | 0.19 | 32 | 1020.2 |
| 20260509131920 | 61 | 310 | 11.0 | 11.0 | 0.00 | 0.00 | 0.19 | 31 | 1020.3 |
| 20260509131415 | 61 | 310 | 5.0 | 12.0 | 0.00 | 0.00 | 0.19 | 34 | 1020.4 |
| 20260509130910 | 60 | 281 | 3.0 | 10.0 | 0.00 | 0.00 | 0.19 | 34 | 1020.5 |
| 20260509130404 | 60 | 270 | 7.0 | 13.0 | 0.00 | 0.00 | 0.19 | 34 | 1020.4 |
| 20260509125351 | 59 | 243 | 14.0 | 14.0 | 0.00 | 0.00 | 0.19 | 35 | 1020.5 |
| 20260509124846 | 58 | 270 | 14.0 | 14.0 | 0.00 | 0.00 | 0.19 | 35 | 1020.5 |
| 20260509124341 | 58 | 270 | 17.0 | 17.0 | 0.00 | 0.00 | 0.19 | 34 | 1020.6 |
| 20260509123835 | 58 | 270 | 11.0 | 16.0 | 0.00 | 0.00 | 0.19 | 32 | 1020.6 |
| 20260509122822 | 59 | 261 | 16.0 | 16.0 | 0.00 | 0.00 | 0.19 | 31 | 1020.6 |
| 20260509122317 | 60 | 225 | 8.0 | 13.0 | 0.00 | 0.00 | 0.19 | 29 | 1020.7 |
| 20260509121812 | 61 | 270 | 16.0 | 19.0 | 0.00 | 0.00 | 0.19 | 29 | 1020.8 |
| 20260509121306 | 60 | 256 | 8.0 | 8.0 | 0.00 | 0.00 | 0.19 | 29 | 1020.8 |
| 20260509120801 | 60 | 288 | 8.0 | 8.0 | 0.00 | 0.00 | 0.19 | 26 | 1020.9 |
| 20260509120256 | 59 | 288 | 10.0 | 10.0 | 0.00 | 0.00 | 0.19 | 27 | 1020.9 |
| 20260509115751 | 59 | 297 | 8.0 | 14.0 | 0.00 | 0.00 | 0.19 | 28 | 1021.0 |
| 20260509115246 | 58 | 324 | 2.0 | 11.0 | 0.00 | 0.00 | 0.19 | 26 | 1021.1 |
| 20260509114740 | 59 | 274 | 10.0 | 19.0 | 0.00 | 0.00 | 0.19 | 27 | 1021.0 |
| 20260509114235 | 59 | 238 | 8.0 | 15.0 | 0.00 | 0.00 | 0.19 | 26 | 1021.1 |
| 20260509113730 | 58 | 270 | 5.0 | 10.0 | 0.00 | 0.00 | 0.19 | 26 | 1021.1 |
| 20260509113225 | 59 | 270 | 12.0 | 17.0 | 0.00 | 0.00 | 0.17 | 26 | 1021.1 |
| 20260509112720 | 60 | 261 | 5.0 | 16.0 | 0.00 | 0.00 | 0.16 | 26 | 1021.2 |
| 20260509112214 | 61 | 292 | 8.0 | 16.0 | 0.00 | 0.00 | 0.16 | 27 | 1021.2 |
| 20260509111709 | 62 | 256 | 11.0 | 11.0 | 0.00 | 0.00 | 0.16 | 27 | 1021.2 |
| 20260509111204 | 62 | 207 | 5.0 | 7.0 | 0.00 | 0.00 | 0.16 | 27 | 1021.2 |
| 20260509110659 | 62 | 270 | 5.0 | 8.0 | 0.00 | 0.00 | 0.16 | 27 | 1021.3 |
| 20260509110154 | 62 | 315 | 3.0 | 8.0 | 0.00 | 0.00 | 0.16 | 27 | 1021.4 |
| 20260509105648 | 62 | 351 | 3.0 | 10.0 | 0.00 | 0.00 | 0.16 | 30 | 1021.3 |
| 20260509105143 | 61 | 326 | 4.0 | 6.0 | 0.00 | 0.00 | 0.16 | 29 | 1021.4 |
| 20260509104638 | 61 | 333 | 6.0 | 8.0 | 0.00 | 0.00 | 0.16 | 31 | 1021.5 |
| 20260509104133 | 61 | 306 | 4.0 | 8.0 | 0.00 | 0.00 | 0.16 | 31 | 1021.6 |
| 20260509103628 | 60 | 306 | 5.0 | 8.0 | 0.00 | 0.00 | 0.16 | 31 | 1021.6 |
| 20260509103122 | 61 | 270 | 17.0 | 18.0 | 0.00 | 0.00 | 0.16 | 34 | 1021.7 |
| 20260509102617 | 61 | 306 | 6.0 | 10.0 | 0.00 | 0.00 | 0.16 | 34 | 1021.7 |
| 20260509102112 | 61 | 303 | 4.0 | 7.0 | 0.00 | 0.00 | 0.16 | 32 | 1021.8 |
| 20260509101607 | 61 | 261 | 9.0 | 9.0 | 0.00 | 0.00 | 0.16 | 36 | 1021.8 |
| 20260509101102 | 60 | 288 | 2.0 | 9.0 | 0.00 | 0.00 | 0.16 | 36 | 1021.8 |
| 20260509100556 | 60 | 292 | 7.0 | 13.0 | 0.00 | 0.00 | 0.16 | 38 | 1021.8 |
| 20260509100051 | 60 | 220 | 10.0 | 14.0 | 0.00 | 0.00 | 0.16 | 39 | 1022.0 |
| 20260509095546 | 59 | 270 | 13.0 | 13.0 | 0.00 | 0.00 | 0.16 | 41 | 1021.9 |
| 20260509095041 | 59 | 274 | 3.0 | 15.0 | 0.00 | 0.00 | 0.16 | 39 | 1022.1 |
| 20260509094536 | 60 | 261 | 10.0 | 14.0 | 0.00 | 0.00 | 0.16 | 39 | 1022.1 |
| 20260509094031 | 61 | 229 | 8.0 | 15.0 | 0.00 | 0.00 | 0.16 | 38 | 1022.1 |
| 20260509093525 | 61 | 270 | 8.0 | 14.0 | 0.00 | 0.00 | 0.16 | 41 | 1022.0 |
| 20260509093020 | 60 | 270 | 3.0 | 8.0 | 0.00 | 0.00 | 0.16 | 42 | 1021.9 |
| 20260509092515 | 60 | 270 | 5.0 | 12.0 | 0.00 | 0.00 | 0.16 | 42 | 1022.0 |
| 20260509092010 | 60 | 261 | 10.0 | 15.0 | 0.00 | 0.00 | 0.16 | 42 | 1022.1 |
| 20260509091505 | 60 | 216 | 6.0 | 10.0 | 0.00 | 0.00 | 0.16 | 42 | 1022.1 |
| 20260509090959 | 60 | 220 | 7.0 | 12.0 | 0.00 | 0.00 | 0.16 | 42 | 1022.1 |
| 20260509090454 | 60 | 180 | 10.0 | 11.0 | 0.00 | 0.00 | 0.16 | 42 | 1022.2 |
| 20260509085949 | 60 | 220 | 11.0 | 11.0 | 0.00 | 0.00 | 0.16 | 43 | 1022.2 |
| 20260509085444 | 61 | 189 | 7.0 | 11.0 | 0.00 | 0.00 | 0.16 | 42 | 1022.2 |
| 20260509084939 | 62 | 211 | 4.0 | 9.0 | 0.00 | 0.00 | 0.16 | 40 | 1022.2 |
| 20260509084433 | 62 | 247 | 4.0 | 9.0 | 0.00 | 0.00 | 0.16 | 39 | 1022.2 |
| 20260509083928 | 62 | 225 | 9.0 | 9.0 | 0.00 | 0.00 | 0.16 | 41 | 1022.1 |
| 20260509083423 | 62 | 216 | 5.0 | 5.0 | 0.00 | 0.00 | 0.16 | 42 | 1022.2 |
| 20260509082918 | 62 | 135 | 5.0 | 9.0 | 0.00 | 0.00 | 0.16 | 44 | 1022.3 |
| 20260509082413 | 62 | 310 | 0.0 | 6.0 | 0.00 | 0.00 | 0.16 | 44 | 1022.4 |
| 20260509081907 | 62 | 225 | 5.0 | 6.0 | 0.00 | 0.00 | 0.16 | 45 | 1022.3 |
| 20260509081402 | 61 | 216 | 4.0 | 6.0 | 0.00 | 0.00 | 0.16 | 47 | 1022.4 |
| 20260509080857 | 61 | 99 | 0.0 | 3.0 | 0.00 | 0.00 | 0.16 | 46 | 1022.4 |
| 20260509080352 | 61 | 90 | 1.0 | 8.0 | 0.00 | 0.00 | 0.15 | 48 | 1022.5 |
| 20260509075847 | 60 | 108 | 0.0 | 3.0 | 0.00 | 0.00 | 0.15 | 49 | 1022.4 |
| 20260509075341 | 59 | 225 | 2.0 | 5.0 | 0.00 | 0.00 | 0.15 | 50 | 1022.4 |
| 20260509074836 | 59 | 315 | 3.0 | 5.0 | 0.00 | 0.00 | 0.15 | 50 | 1022.5 |
| 20260509074331 | 59 | 180 | 5.0 | 8.0 | 0.00 | 0.00 | 0.15 | 51 | 1022.5 |
| 20260509073826 | 58 | 153 | 3.0 | 6.0 | 0.00 | 0.00 | 0.15 | 51 | 1022.6 |
| 20260509073321 | 59 | 202 | 5.0 | 7.0 | 0.00 | 0.00 | 0.15 | 51 | 1022.5 |
| 20260509072815 | 59 | 216 | 4.0 | 5.0 | 0.00 | 0.00 | 0.14 | 51 | 1022.6 |
| 20260509072310 | 58 | 135 | 2.0 | 3.0 | 0.00 | 0.00 | 0.14 | 52 | 1022.6 |
| 20260509071805 | 58 | 103 | 3.0 | 3.0 | 0.00 | 0.00 | 0.14 | 53 | 1022.5 |
| 20260509071300 | 58 | 202 | 3.0 | 5.0 | 0.00 | 0.00 | 0.12 | 54 | 1022.6 |
| 20260509070755 | 57 | 180 | 3.0 | 4.0 | 0.00 | 0.00 | 0.11 | 55 | 1022.6 |
| 20260509070249 | 57 | 180 | 2.0 | 4.0 | 0.00 | 0.00 | 0.09 | 56 | 1022.5 |
| 20260509065744 | 56 | 135 | 4.0 | 4.0 | 0.00 | 0.00 | 0.09 | 57 | 1022.6 |
| 20260509065239 | 55 | 220 | 2.0 | 3.0 | 0.00 | 0.00 | 0.09 | 57 | 1022.6 |
| 20260509064734 | 55 | 126 | 3.0 | 4.0 | 0.00 | 0.00 | 0.09 | 58 | 1022.5 |
| 20260509064229 | 54 | 180 | 2.0 | 4.0 | 0.00 | 0.00 | 0.08 | 59 | 1022.5 |
| 20260509063723 | 53 | 63 | 2.0 | 3.0 | 0.00 | 0.00 | 0.08 | 59 | 1022.5 |
| 20260509063218 | 53 | 90 | 3.0 | 4.0 | 0.00 | 0.00 | 0.08 | 60 | 1022.6 |
| 20260509062713 | 53 | 135 | 3.0 | 5.0 | 0.00 | 0.00 | 0.07 | 60 | 1022.5 |
| 20260509062208 | 53 | 135 | 3.0 | 6.0 | 0.00 | 0.00 | 0.06 | 61 | 1022.6 |
| 20260509061703 | 53 | 135 | 2.0 | 3.0 | 0.00 | 0.00 | 0.06 | 63 | 1022.6 |
| 20260509061157 | 52 | 135 | 0.0 | 1.0 | 0.00 | 0.00 | 0.06 | 64 | 1022.6 |
| 20260509060652 | 51 | 135 | 2.0 | 2.0 | 0.00 | 0.00 | 0.06 | 66 | 1022.6 |
| 20260509060147 | 50 | 90 | 0.0 | 0.0 | 0.00 | 0.00 | 0.06 | 66 | 1022.4 |
| 20260509055642 | 49 | 90 | 1.0 | 3.0 | 0.00 | 0.00 | 0.06 | 67 | 1022.6 |
| 20260509055137 | 50 | 90 | 4.0 | 5.0 | 0.00 | 0.00 | 0.06 | 68 | 1022.5 |
| 20260509054631 | 49 | 90 | 2.0 | 4.0 | 0.00 | 0.00 | 0.06 | 70 | 1022.5 |
| 20260509054126 | 49 | 45 | 0.0 | 2.0 | 0.00 | 0.00 | 0.05 | 72 | 1022.6 |
| 20260509053621 | 47 | 45 | 1.0 | 2.0 | 0.00 | 0.00 | 0.04 | 73 | 1022.6 |
| 20260509053116 | 46 | 45 | 1.0 | 2.0 | 0.00 | 0.00 | 0.04 | 75 | 1022.5 |
| 20260509052611 | 46 | 45 | 1.0 | 1.0 | 0.00 | 0.00 | 0.04 | 76 | 1022.5 |
| 20260509052106 | 44 | 9 | 1.0 | 2.0 | 0.00 | 0.00 | 0.04 | 78 | 1022.5 |
| 20260509051600 | 43 | 45 | 0.0 | 2.0 | 0.00 | 0.00 | 0.01 | 78 | 1022.4 |
| 20260509051055 | 42 | 45 | 1.0 | 2.0 | 0.00 | 0.00 | 0.01 | 80 | 1022.4 |
| 20260509050550 | 41 | 45 | 1.0 | 2.0 | 0.00 | 0.00 | 0.01 | 80 | 1022.3 |
| 20260509050045 | 40 | 45 | 1.0 | 2.0 | 0.00 | 0.00 | 0.01 | 81 | 1022.2 |
| 20260509045540 | 39 | 18 | 2.0 | 2.0 | 0.00 | 0.00 | 0.01 | 81 | 1022.3 |
| 20260509045034 | 37 | 45 | 1.0 | 2.0 | 0.00 | 0.00 | 0.01 | 81 | 1022.3 |
| 20260509044529 | 35 | 0 | 2.0 | 3.0 | 0.00 | 0.00 | 0.01 | 80 | 1022.2 |
| 20260509044024 | 34 | 45 | 1.0 | 2.0 | 0.00 | 0.00 | 0.01 | 80 | 1022.0 |
| 20260509043519 | 32 | 45 | 1.0 | 2.0 | 0.00 | 0.00 | 0.01 | 79 | 1022.1 |
| 20260509043014 | 32 | 45 | 0.0 | 1.0 | 0.00 | 0.00 | 0.01 | 78 | 1022.1 |
| 20260509042508 | 32 | 45 | 1.0 | 2.0 | 0.00 | 0.00 | 0.01 | 78 | 1022.0 |
| 20260509042003 | 31 | 45 | 1.0 | 2.0 | 0.00 | 0.00 | 0.01 | 78 | 1022.1 |
| 20260509041458 | 31 | 45 | 0.0 | 0.0 | 0.00 | 0.00 | 0.01 | 77 | 1022.1 |
| 20260509040953 | 31 | 45 | 0.0 | 1.0 | 0.00 | 0.00 | 0.01 | 77 | 1022.1 |
| 20260509040448 | 31 | 45 | 1.0 | 1.0 | 0.00 | 0.00 | 0.01 | 77 | 1022.2 |
| 20260509035942 | 30 | 45 | 1.0 | 1.0 | 0.00 | 0.00 | 0.01 | 77 | 1022.1 |
| 20260509035437 | 30 | 45 | 0.0 | 0.0 | 0.00 | 0.00 | 0.01 | 77 | 1022.2 |
| 20260509034932 | 30 | 45 | 0.0 | 0.0 | 0.00 | 0.00 | 0.01 | 76 | 1022.2 |
| 20260509034427 | 30 | 45 | 0.0 | 0.0 | 0.00 | 0.00 | 0.01 | 76 | 1022.1 |
| 20260509033921 | 30 | 45 | 0.0 | 0.0 | 0.00 | 0.00 | 0.01 | 76 | 1022.3 |
| 20260509033416 | 30 | 45 | 0.0 | 1.0 | 0.00 | 0.00 | 0.01 | 76 | 1022.2 |
| 20260509032911 | 30 | 0 | 1.0 | 1.0 | 0.00 | 0.00 | 0.01 | 76 | 1022.2 |
| 20260509032406 | 30 | 45 | 1.0 | 1.0 | 0.00 | 0.00 | 0.01 | 76 | 1022.2 |
| 20260509031901 | 30 | 45 | 0.0 | 0.0 | 0.00 | 0.00 | 0.00 | 76 | 1022.2 |
| 20260509031356 | 30 | 45 | 0.0 | 2.0 | 0.00 | 0.00 | 0.00 | 76 | 1022.1 |
| 20260509030850 | 30 | 45 | 1.0 | 2.0 | 0.00 | 0.00 | 0.00 | 76 | 1022.3 |
| 20260509030345 | 30 | 45 | 1.0 | 2.0 | 0.00 | 0.00 | 0.00 | 76 | 1022.2 |
| 20260509025840 | 30 | 45 | 0.0 | 2.0 | 0.00 | 0.00 | 0.00 | 76 | 1022.3 |
| 20260509025335 | 30 | 45 | 0.0 | 1.0 | 0.00 | 0.00 | 0.00 | 75 | 1022.2 |
| 20260509024829 | 30 | 45 | 1.0 | 1.0 | 0.00 | 0.00 | 0.00 | 75 | 1022.3 |
| 20260509024324 | 30 | 45 | 0.0 | 1.0 | 0.00 | 0.00 | 0.00 | 75 | 1022.3 |
| 20260509023819 | 31 | 0 | 0.0 | 1.0 | 0.00 | 0.00 | 0.00 | 75 | 1022.4 |
| 20260509023314 | 31 | 45 | 1.0 | 1.0 | 0.00 | 0.00 | 0.00 | 75 | 1022.3 |
| 20260509022809 | 31 | 45 | 0.0 | 1.0 | 0.00 | 0.00 | 0.00 | 76 | 1022.4 |
| 20260509022306 | 31 | 45 | 0.0 | 2.0 | 0.00 | 0.00 | 0.00 | 75 | 1022.3 |
| 20260509021758 | 31 | 45 | 0.0 | 1.0 | 0.00 | 0.00 | 0.00 | 75 | 1022.3 |
| 20260509021253 | 31 | 45 | 1.0 | 1.0 | 0.00 | 0.00 | 0.00 | 75 | 1022.3 |
| 20260509020748 | 31 | 45 | 0.0 | 1.0 | 0.00 | 0.00 | 0.00 | 75 | 1022.4 |
| 20260509020243 | 31 | 45 | 1.0 | 2.0 | 0.00 | 0.00 | 0.00 | 75 | 1022.5 |
| 20260509015738 | 31 | 45 | 1.0 | 2.0 | 0.00 | 0.00 | 0.00 | 75 | 1022.5 |
| 20260509015232 | 32 | 45 | 1.0 | 1.0 | 0.00 | 0.00 | 0.00 | 75 | 1022.4 |
| 20260509014727 | 32 | 45 | 1.0 | 2.0 | 0.00 | 0.00 | 0.00 | 74 | 1022.4 |
| 20260509014222 | 32 | 45 | 0.0 | 1.0 | 0.00 | 0.00 | 0.00 | 75 | 1022.5 |
| 20260509013717 | 32 | 45 | 1.0 | 1.0 | 0.00 | 0.00 | 0.00 | 74 | 1022.4 |
| 20260509013211 | 32 | 45 | 0.0 | 2.0 | 0.00 | 0.00 | 0.00 | 74 | 1022.4 |
| 20260509012706 | 32 | 45 | 1.0 | 2.0 | 0.00 | 0.00 | 0.00 | 75 | 1022.6 |
| 20260509012201 | 32 | 45 | 0.0 | 3.0 | 0.00 | 0.00 | 0.00 | 75 | 1022.6 |
| 20260509011656 | 32 | 45 | 0.0 | 3.0 | 0.00 | 0.00 | 0.00 | 74 | 1022.6 |
| 20260509011151 | 32 | 90 | 0.0 | 2.0 | 0.00 | 0.00 | 0.00 | 74 | 1022.6 |
| 20260509010645 | 32 | 0 | 3.0 | 3.0 | 0.00 | 0.00 | 0.00 | 74 | 1022.6 |
| 20260509010140 | 32 | 0 | 1.0 | 3.0 | 0.00 | 0.00 | 0.00 | 74 | 1022.7 |
| 20260509005635 | 33 | 45 | 2.0 | 2.0 | 0.00 | 0.00 | 0.00 | 74 | 1022.7 |
| 20260509005130 | 33 | 0 | 2.0 | 2.0 | 0.00 | 0.00 | 0.00 | 74 | 1022.6 |
| 20260509004625 | 33 | 45 | 1.0 | 2.0 | 0.00 | 0.00 | 0.00 | 73 | 1022.6 |
| 20260509004119 | 33 | 45 | 1.0 | 2.0 | 0.00 | 0.00 | 0.00 | 73 | 1022.7 |
| 20260509003614 | 33 | 45 | 0.0 | 0.0 | 0.00 | 0.00 | 0.00 | 73 | 1022.7 |
| 20260509003109 | 33 | 45 | 0.0 | 1.0 | 0.00 | 0.00 | 0.00 | 73 | 1022.7 |
| 20260509002604 | 33 | 18 | 2.0 | 2.0 | 0.00 | 0.00 | 0.00 | 73 | 1022.7 |
| 20260509002059 | 33 | 0 | 2.0 | 4.0 | 0.00 | 0.00 | 0.00 | 73 | 1022.7 |
| 20260509001553 | 33 | 22 | 2.0 | 2.0 | 0.00 | 0.00 | 0.00 | 72 | 1022.7 |
| 20260509001048 | 33 | 45 | 1.0 | 1.0 | 0.00 | 0.00 | 0.00 | 72 | 1022.7 |
| 20260509000543 | 33 | 45 | 0.0 | 0.0 | 0.00 | 0.00 | 0.00 | 72 | 1022.6 |
| 20260509000038 | 33 | 45 | 1.0 | 2.0 | 0.00 | 0.00 | 0.00 | 72 | 1022.6 |
| 20260508235533 | 33 | 45 | 1.0 | 2.0 | 0.00 | 0.00 | 0.00 | 71 | 1022.6 |
| 20260508235027 | 33 | 45 | 1.0 | 2.0 | 0.00 | 0.00 | 0.00 | 71 | 1022.6 |
| 20260508234522 | 33 | 45 | 2.0 | 2.0 | 0.00 | 0.00 | 0.00 | 71 | 1022.6 |
| 20260508234017 | 33 | 45 | 0.0 | 0.0 | 0.00 | 0.00 | 0.00 | 71 | 1022.5 |
| 20260508233512 | 33 | 45 | 0.0 | 1.0 | 0.00 | 0.00 | 0.00 | 70 | 1022.5 |
| 20260508233007 | 33 | 45 | 1.0 | 1.0 | 0.00 | 0.00 | 0.00 | 70 | 1022.6 |
| 20260508232501 | 33 | 45 | 0.0 | 2.0 | 0.00 | 0.00 | 0.00 | 69 | 1022.7 |
| 20260508231956 | 34 | 90 | 0.0 | 0.0 | 0.00 | 0.00 | 0.00 | 69 | 1022.7 |
| 20260508231451 | 34 | 45 | 0.0 | 0.0 | 0.00 | 0.00 | 0.00 | 70 | 1022.9 |
| 20260508230946 | 34 | 45 | 0.0 | 0.0 | 0.00 | 0.00 | 0.00 | 69 | 1022.7 |
| 20260508230441 | 34 | 45 | 0.0 | 0.0 | 0.00 | 0.00 | 0.00 | 69 | 1022.8 |
| 20260508225935 | 34 | 45 | 0.0 | 1.0 | 0.00 | 0.00 | 0.00 | 68 | 1022.8 |
| 20260508225430 | 34 | 45 | 0.0 | 0.0 | 0.00 | 0.00 | 0.00 | 68 | 1022.8 |
| 20260508224925 | 35 | 45 | 0.0 | 1.0 | 0.00 | 0.00 | 0.00 | 68 | 1022.7 |
| 20260508224420 | 35 | 45 | 0.0 | 0.0 | 0.00 | 0.00 | 0.00 | 68 | 1022.7 |
| 20260508223915 | 35 | 45 | 0.0 | 0.0 | 0.00 | 0.00 | 0.00 | 67 | 1022.8 |
| 20260508223409 | 35 | 45 | 0.0 | 0.0 | 0.00 | 0.00 | 0.00 | 67 | 1022.8 |
| 20260508222904 | 35 | 45 | 0.0 | 0.0 | 0.00 | 0.00 | 0.00 | 67 | 1022.7 |
| 20260508222359 | 35 | 45 | 0.0 | 0.0 | 0.00 | 0.00 | 0.00 | 66 | 1022.6 |
| 20260508221854 | 36 | 45 | 0.0 | 0.0 | 0.00 | 0.00 | 0.00 | 66 | 1022.6 |
| 20260508221349 | 36 | 45 | 0.0 | 0.0 | 0.00 | 0.00 | 0.00 | 66 | 1022.6 |
| 20260508220843 | 36 | 45 | 0.0 | 0.0 | 0.00 | 0.00 | 0.00 | 65 | 1022.6 |
| 20260508220338 | 37 | 45 | 0.0 | 0.0 | 0.00 | 0.00 | 0.00 | 65 | 1022.5 |
| 20260508215833 | 37 | 90 | 0.0 | 1.0 | 0.00 | 0.00 | 0.00 | 65 | 1022.5 |
| 20260508215328 | 37 | 90 | 0.0 | 0.0 | 0.00 | 0.00 | 0.00 | 64 | 1022.6 |
| 20260508214823 | 37 | 0 | 0.0 | 0.0 | 0.00 | 0.00 | 0.00 | 64 | 1022.6 |
| 20260508214317 | 38 | 0 | 0.0 | 0.0 | 0.00 | 0.00 | 0.00 | 64 | 1022.5 |
| 20260508213812 | 38 | 0 | 2.0 | 3.0 | 0.00 | 0.00 | 0.00 | 64 | 1022.5 |
| 20260508213307 | 38 | 0 | 2.0 | 2.0 | 0.00 | 0.00 | 0.00 | 64 | 1022.4 |
| 20260508212802 | 39 | 76 | 0.0 | 0.0 | 0.00 | 0.00 | 0.00 | 63 | 1022.6 |
| 20260508212257 | 39 | 90 | 2.0 | 2.0 | 0.00 | 0.00 | 0.00 | 62 | 1022.5 |
| 20260508211751 | 39 | 85 | 2.0 | 4.0 | 0.00 | 0.00 | 0.00 | 61 | 1022.6 |
| 20260508211246 | 39 | 153 | 1.0 | 1.0 | 0.00 | 0.00 | 0.00 | 60 | 1022.5 |
| 20260508210741 | 39 | 135 | 0.0 | 1.0 | 0.00 | 0.00 | 0.00 | 61 | 1022.4 |
| 20260508210236 | 39 | 225 | 2.0 | 2.0 | 0.00 | 0.00 | 0.00 | 60 | 1022.3 |
| 20260508205731 | 39 | 67 | 0.0 | 0.0 | 0.00 | 0.00 | 0.00 | 60 | 1022.2 |
| 20260508205225 | 40 | 67 | 0.0 | 0.0 | 0.00 | 0.00 | 0.00 | 59 | 1022.1 |
| 20260508204720 | 40 | 67 | 0.0 | 0.0 | 0.00 | 0.00 | 0.00 | 59 | 1022.2 |
| 20260508204215 | 40 | 135 | 0.0 | 0.0 | 0.00 | 0.00 | 0.00 | 57 | 1022.1 |
| 20260508203710 | 40 | 135 | 0.0 | 0.0 | 0.00 | 0.00 | 0.00 | 57 | 1022.2 |
| 20260508203205 | 40 | 135 | 0.0 | 0.0 | 0.00 | 0.00 | 0.00 | 56 | 1022.1 |
| 20260508202659 | 41 | 135 | 0.0 | 0.0 | 0.00 | 0.00 | 0.00 | 55 | 1022.1 |
| 20260508202155 | 41 | 135 | 0.0 | 0.0 | 0.00 | 0.00 | 0.00 | 55 | 1022.0 |
| 20260508201649 | 42 | 67 | 0.0 | 1.0 | 0.00 | 0.00 | 0.00 | 54 | 1021.9 |
| 20260508201144 | 42 | 67 | 0.0 | 1.0 | 0.00 | 0.00 | 0.00 | 54 | 1021.9 |
| 20260508200639 | 42 | 67 | 1.0 | 1.0 | 0.00 | 0.00 | 0.00 | 53 | 1021.9 |
| 20260508200133 | 42 | 90 | 0.0 | 0.0 | 0.00 | 0.00 | 0.00 | 51 | 1021.8 |
| 20260508195628 | 43 | 90 | 0.0 | 0.0 | 0.00 | 0.00 | 0.00 | 51 | 1021.8 |
| 20260508195123 | 43 | 90 | 0.0 | 0.0 | 0.00 | 0.00 | 0.00 | 49 | 1021.8 |
| 20260508194618 | 44 | 135 | 0.0 | 0.0 | 0.00 | 0.00 | 0.00 | 49 | 1021.8 |
| 20260508194113 | 44 | 135 | 0.0 | 1.0 | 0.00 | 0.00 | 0.00 | 48 | 1021.8 |
| 20260508193607 | 45 | 135 | 1.0 | 1.0 | 0.00 | 0.00 | 0.00 | 48 | 1021.8 |
| 20260508193102 | 45 | 135 | 1.0 | 1.0 | 0.00 | 0.00 | 0.00 | 47 | 1021.7 |
| 20260508192557 | 46 | 135 | 0.0 | 2.0 | 0.00 | 0.00 | 0.00 | 47 | 1021.8 |
| 20260508192052 | 46 | 135 | 2.0 | 3.0 | 0.00 | 0.00 | 0.00 | 46 | 1021.7 |
| 20260508191547 | 47 | 180 | 1.0 | 2.0 | 0.00 | 0.00 | 0.00 | 45 | 1021.8 |
| 20260508191041 | 47 | 135 | 0.0 | 1.0 | 0.00 | 0.00 | 0.01 | 44 | 1021.6 |
| 20260508190536 | 47 | 135 | 1.0 | 1.0 | 0.00 | 0.00 | 0.01 | 44 | 1021.6 |
| 20260508190031 | 48 | 135 | 0.0 | 1.0 | 0.00 | 0.00 | 0.01 | 43 | 1021.6 |
| 20260508185526 | 48 | 135 | 1.0 | 2.0 | 0.00 | 0.00 | 0.01 | 42 | 1021.5 |
| 20260508185021 | 49 | 112 | 0.0 | 0.0 | 0.00 | 0.00 | 0.01 | 42 | 1021.5 |
| 20260508184515 | 49 | 112 | 0.0 | 0.0 | 0.00 | 0.00 | 0.01 | 41 | 1021.6 |
| 20260508184010 | 49 | 112 | 0.0 | 0.0 | 0.00 | 0.00 | 0.01 | 40 | 1021.5 |
| 20260508183505 | 50 | 112 | 0.0 | 1.0 | 0.00 | 0.00 | 0.01 | 39 | 1021.5 |
| 20260508183000 | 50 | 180 | 0.0 | 1.0 | 0.00 | 0.00 | 0.01 | 39 | 1021.5 |
| 20260508182455 | 51 | 180 | 1.0 | 4.0 | 0.00 | 0.00 | 0.01 | 38 | 1021.4 |
| 20260508181949 | 51 | 225 | 2.0 | 3.0 | 0.00 | 0.00 | 0.01 | 38 | 1021.4 |
| 20260508181444 | 51 | 189 | 4.0 | 5.0 | 0.00 | 0.00 | 0.01 | 37 | 1021.4 |
| 20260508180939 | 52 | 225 | 3.0 | 5.0 | 0.00 | 0.00 | 0.01 | 37 | 1021.4 |
| 20260508180434 | 52 | 270 | 5.0 | 5.0 | 0.00 | 0.00 | 0.01 | 35 | 1021.4 |
| 20260508175929 | 53 | 225 | 3.0 | 3.0 | 0.00 | 0.00 | 0.01 | 36 | 1021.4 |
| 20260508175423 | 53 | 324 | 1.0 | 3.0 | 0.00 | 0.00 | 0.01 | 36 | 1021.4 |
| 20260508174918 | 53 | 265 | 2.0 | 4.0 | 0.00 | 0.00 | 0.01 | 36 | 1021.2 |
| 20260508174413 | 54 | 337 | 1.0 | 4.0 | 0.00 | 0.00 | 0.01 | 37 | 1021.2 |
| 20260508173908 | 54 | 252 | 0.0 | 2.0 | 0.00 | 0.00 | 0.01 | 38 | 1021.4 |
| 20260508173403 | 54 | 315 | 0.0 | 5.0 | 0.00 | 0.00 | 0.01 | 38 | 1021.2 |
| 20260508172857 | 54 | 229 | 1.0 | 4.0 | 0.00 | 0.00 | 0.01 | 38 | 1021.3 |
| 20260508172352 | 54 | 270 | 5.0 | 5.0 | 0.00 | 0.00 | 0.01 | 38 | 1021.2 |
| 20260508171847 | 55 | 270 | 3.0 | 5.0 | 0.00 | 0.00 | 0.01 | 34 | 1021.3 |
| 20260508171342 | 55 | 247 | 6.0 | 10.0 | 0.00 | 0.00 | 0.01 | 31 | 1021.2 |
| 20260508170837 | 55 | 243 | 8.0 | 8.0 | 0.00 | 0.00 | 0.01 | 32 | 1021.2 |
| 20260508170331 | 56 | 229 | 5.0 | 10.0 | 0.00 | 0.00 | 0.01 | 32 | 1021.1 |
| 20260508165826 | 56 | 270 | 5.0 | 9.0 | 0.00 | 0.00 | 0.01 | 31 | 1021.1 |
| 20260508165321 | 56 | 270 | 6.0 | 10.0 | 0.00 | 0.00 | 0.01 | 30 | 1021.1 |
| 20260508164816 | 57 | 225 | 5.0 | 9.0 | 0.00 | 0.00 | 0.01 | 30 | 1021.0 |
| 20260508164311 | 57 | 256 | 5.0 | 10.0 | 0.00 | 0.00 | 0.01 | 29 | 1021.0 |
| 20260508163805 | 58 | 270 | 8.0 | 10.0 | 0.00 | 0.00 | 0.01 | 30 | 1021.0 |
| 20260508163300 | 58 | 270 | 7.0 | 10.0 | 0.00 | 0.00 | 0.01 | 29 | 1021.1 |
| 20260508162755 | 59 | 274 | 6.0 | 7.0 | 0.00 | 0.00 | 0.01 | 30 | 1021.2 |
| 20260508162250 | 59 | 265 | 8.0 | 8.0 | 0.00 | 0.00 | 0.01 | 30 | 1021.2 |
| 20260508161745 | 60 | 256 | 3.0 | 12.0 | 0.00 | 0.00 | 0.01 | 30 | 1021.1 |
| 20260508161239 | 60 | 9 | 1.0 | 5.0 | 0.00 | 0.00 | 0.01 | 30 | 1021.2 |
| 20260508160734 | 60 | 297 | 6.0 | 10.0 | 0.00 | 0.00 | 0.01 | 29 | 1021.2 |
| 20260508160229 | 60 | 270 | 5.0 | 7.0 | 0.00 | 0.00 | 0.01 | 29 | 1021.2 |
| 20260508155724 | 59 | 324 | 3.0 | 7.0 | 0.00 | 0.00 | 0.01 | 29 | 1021.1 |
| 20260508155219 | 59 | 270 | 12.0 | 15.0 | 0.00 | 0.00 | 0.01 | 26 | 1021.1 |
| 20260508154714 | 59 | 261 | 3.0 | 12.0 | 0.00 | 0.00 | 0.01 | 26 | 1021.0 |
| 20260508154208 | 59 | 261 | 7.0 | 8.0 | 0.00 | 0.00 | 0.01 | 25 | 1021.0 |
| 20260508153703 | 59 | 225 | 9.0 | 12.0 | 0.00 | 0.00 | 0.01 | 24 | 1021.0 |
| 20260508153158 | 59 | 306 | 6.0 | 14.0 | 0.00 | 0.00 | 0.01 | 24 | 1021.0 |
| 20260508152653 | 58 | 270 | 5.0 | 15.0 | 0.00 | 0.00 | 0.01 | 25 | 1020.9 |
| 20260508152148 | 58 | 274 | 9.0 | 14.0 | 0.00 | 0.00 | 0.01 | 24 | 1021.0 |
| 20260508151642 | 59 | 252 | 13.0 | 15.0 | 0.00 | 0.00 | 0.01 | 24 | 1021.0 |
| 20260508151137 | 59 | 270 | 12.0 | 14.0 | 0.00 | 0.00 | 0.01 | 24 | 1021.0 |
| 20260508150632 | 59 | 270 | 12.0 | 13.0 | 0.00 | 0.00 | 0.01 | 23 | 1021.1 |
| 20260508150127 | 59 | 297 | 9.0 | 12.0 | 0.00 | 0.00 | 0.01 | 24 | 1021.1 |
| 20260508145622 | 59 | 261 | 6.0 | 11.0 | 0.00 | 0.00 | 0.01 | 23 | 1021.1 |
| 20260508145116 | 59 | 229 | 10.0 | 13.0 | 0.00 | 0.00 | 0.01 | 25 | 1021.1 |
| 20260508144611 | 59 | 225 | 10.0 | 14.0 | 0.00 | 0.00 | 0.01 | 24 | 1021.2 |
| 20260508144106 | 60 | 225 | 11.0 | 14.0 | 0.00 | 0.00 | 0.01 | 25 | 1021.2 |
| 20260508143601 | 60 | 252 | 10.0 | 14.0 | 0.00 | 0.00 | 0.01 | 27 | 1021.3 |
| 20260508143056 | 60 | 270 | 20.0 | 20.0 | 0.00 | 0.00 | 0.01 | 27 | 1021.3 |
| 20260508142550 | 60 | 270 | 8.0 | 14.0 | 0.00 | 0.00 | 0.01 | 27 | 1021.3 |
| 20260508142045 | 59 | 270 | 8.0 | 13.0 | 0.00 | 0.00 | 0.01 | 29 | 1021.2 |
| 20260508141540 | 60 | 243 | 14.0 | 15.0 | 0.00 | 0.00 | 0.01 | 30 | 1021.3 |
| 20260508141035 | 60 | 225 | 12.0 | 14.0 | 0.00 | 0.00 | 0.01 | 31 | 1021.2 |
| 20260508140530 | 60 | 225 | 9.0 | 16.0 | 0.00 | 0.00 | 0.01 | 30 | 1021.2 |
| 20260508140024 | 61 | 229 | 16.0 | 16.0 | 0.00 | 0.00 | 0.01 | 29 | 1021.2 |
| 20260508135519 | 61 | 247 | 10.0 | 15.0 | 0.00 | 0.00 | 0.01 | 26 | 1021.2 |
| 20260508135015 | 61 | 270 | 13.0 | 14.0 | 0.00 | 0.00 | 0.01 | 25 | 1021.2 |
| 20260508134509 | 61 | 225 | 13.0 | 13.0 | 0.00 | 0.00 | 0.01 | 26 | 1021.2 |
| 20260508134004 | 61 | 225 | 11.0 | 12.0 | 0.00 | 0.00 | 0.01 | 26 | 1021.3 |
| 20260508133458 | 60 | 202 | 11.0 | 14.0 | 0.00 | 0.00 | 0.01 | 25 | 1021.3 |
| 20260508132953 | 61 | 171 | 9.0 | 13.0 | 0.00 | 0.00 | 0.01 | 25 | 1021.4 |